Time;durP1;ratioP1;P1;durP2;ratioP2;P2;SDS_P1;SDS_P2;PMS_P1;PMS_P2;Temp;Humidity;BMP_temperature;BMP_pressure;BME280_temperature;BME280_humidity;BME280_pressure;Samples;Min_cycle;Max_cycle;Signal;HPM_P1;HPM_P2
2024/02/29 00:00:25;;;;;;;44.77;23.73;;;7.50;99.90;;;;;;4160545;28;20053;-61
2024/02/29 00:02:26;;;;;;;43.33;23.33;;;7.50;99.90;;;;;;4161911;28;20053;-59
2024/02/29 00:04:28;;;;;;;40.93;21.80;;;7.40;99.90;;;;;;4143670;28;20051;-59
2024/02/29 00:06:29;;;;;;;41.53;22.67;;;7.40;99.90;;;;;;4162628;28;20091;-62
2024/02/29 00:08:31;;;;;;;39.40;20.80;;;7.40;99.90;;;;;;4160781;28;20084;-60
2024/02/29 00:10:32;;;;;;;43.70;22.00;;;7.40;99.90;;;;;;4161401;28;20056;-60
2024/02/29 00:12:33;;;;;;;35.33;19.77;;;7.40;99.90;;;;;;4162105;28;20026;-62
2024/02/29 00:14:38;;;;;;;38.33;20.77;;;7.50;99.90;;;;;;4161887;28;20033;-62
2024/02/29 00:16:39;;;;;;;36.80;19.70;;;7.50;99.90;;;;;;4162074;28;20037;-60
2024/02/29 00:18:40;;;;;;;34.03;17.57;;;7.50;99.90;;;;;;4160606;28;20033;-62
2024/02/29 00:20:41;;;;;;;34.20;18.23;;;7.50;99.90;;;;;;4144306;28;20079;-61
2024/02/29 00:22:43;;;;;;;39.80;19.03;;;7.40;99.90;;;;;;4161317;28;20079;-62
2024/02/29 00:24:44;;;;;;;36.37;17.97;;;7.30;99.90;;;;;;4161936;28;20092;-60
2024/02/29 00:26:45;;;;;;;36.53;18.03;;;7.20;99.90;;;;;;4160122;28;20045;-61
2024/02/29 00:28:47;;;;;;;30.97;16.70;;;7.20;99.90;;;;;;4161619;28;20474;-57
2024/02/29 00:30:48;;;;;;;38.00;19.43;;;7.20;99.90;;;;;;4160577;28;20103;-60
2024/02/29 00:32:50;;;;;;;34.07;18.70;;;7.10;99.90;;;;;;4161175;28;20092;-61
2024/02/29 00:34:51;;;;;;;38.73;18.57;;;7.10;99.90;;;;;;4160022;28;20100;-58
2024/02/29 00:36:53;;;;;;;32.27;17.03;;;7.10;99.90;;;;;;4162255;28;20433;-61
2024/02/29 00:38:55;;;;;;;40.93;18.60;;;7.10;99.90;;;;;;4160513;28;20041;-61
2024/02/29 00:40:56;;;;;;;37.70;19.90;;;7.10;99.90;;;;;;4160431;28;20571;-59
2024/02/29 00:42:57;;;;;;;42.50;20.77;;;7.10;99.90;;;;;;4161281;28;20041;-61
2024/02/29 00:44:58;;;;;;;37.20;19.97;;;7.00;99.90;;;;;;4161296;28;20091;-61
2024/02/29 00:47:00;;;;;;;40.27;20.80;;;7.00;99.90;;;;;;4161510;28;20033;-60
2024/02/29 00:49:01;;;;;;;42.33;20.33;;;6.90;99.90;;;;;;4159669;28;20559;-60
2024/02/29 00:51:03;;;;;;;47.17;21.33;;;7.00;99.90;;;;;;4160870;28;20164;-61
2024/02/29 00:53:04;;;;;;;36.90;20.13;;;6.90;99.90;;;;;;4159671;28;20561;-61
2024/02/29 00:55:06;;;;;;;41.63;21.13;;;7.00;99.90;;;;;;4161830;28;20041;-62
2024/02/29 00:57:08;;;;;;;37.93;20.87;;;7.00;99.90;;;;;;4160057;28;20092;-62
2024/02/29 00:59:09;;;;;;;42.77;22.17;;;7.00;99.90;;;;;;4161202;28;20494;-62
2024/02/29 01:01:10;;;;;;;41.03;21.30;;;7.10;99.90;;;;;;4142771;28;20121;-60
2024/02/29 01:03:11;;;;;;;43.13;21.27;;;7.00;99.90;;;;;;4161298;28;20556;-62
2024/02/29 01:05:14;;;;;;;40.77;21.77;;;7.00;99.90;;;;;;4160023;28;20045;-60
2024/02/29 01:07:15;;;;;;;38.23;21.13;;;6.90;99.90;;;;;;4160538;28;20496;-62
2024/02/29 01:09:17;;;;;;;43.67;22.30;;;6.90;99.90;;;;;;4159830;28;20524;-62
2024/02/29 01:11:19;;;;;;;40.20;21.23;;;6.80;99.90;;;;;;4160504;28;20038;-63
2024/02/29 01:13:20;;;;;;;42.77;20.80;;;6.80;99.90;;;;;;4159069;28;20045;-61
2024/02/29 01:15:21;;;;;;;40.83;21.03;;;6.70;99.90;;;;;;4160313;28;20547;-58
2024/02/29 01:17:24;;;;;;;48.70;23.30;;;6.70;99.90;;;;;;4160494;28;20123;-62
2024/02/29 01:19:26;;;;;;;42.47;22.20;;;6.60;99.90;;;;;;4159922;28;20041;-63
2024/02/29 01:21:27;;;;;;;41.93;21.63;;;6.60;99.90;;;;;;4160491;28;20042;-62
2024/02/29 01:23:28;;;;;;;39.53;20.90;;;6.60;99.90;;;;;;4160752;28;20021;-62
2024/02/29 01:25:30;;;;;;;42.73;23.50;;;6.60;99.90;;;;;;4161647;28;20385;-61
2024/02/29 01:27:34;;;;;;;47.03;23.80;;;6.60;99.90;;;;;;4160264;28;20068;-60
2024/02/29 01:29:35;;;;;;;42.70;22.57;;;6.50;99.90;;;;;;4161506;28;20029;-57
2024/02/29 01:31:36;;;;;;;41.33;22.70;;;6.60;99.90;;;;;;4159065;28;20433;-56
2024/02/29 01:33:37;;;;;;;43.63;21.50;;;6.60;99.90;;;;;;4159271;28;20030;-53
2024/02/29 01:35:39;;;;;;;38.40;19.60;;;6.60;99.90;;;;;;4160158;28;20068;-53
2024/02/29 01:37:41;;;;;;;38.03;20.27;;;6.60;99.90;;;;;;4160548;28;20037;-55
2024/02/29 01:39:43;;;;;;;38.63;19.80;;;6.60;99.90;;;;;;4158846;28;20030;-57
2024/02/29 01:41:44;;;;;;;36.07;19.20;;;6.50;99.90;;;;;;4157779;28;20049;-58
2024/02/29 01:43:55;;;;;;;36.33;19.50;;;6.50;99.90;;;;;;4159889;28;20129;-57
2024/02/29 01:46:14;;;;;;;39.87;20.63;;;6.40;99.90;;;;;;4160467;28;20037;-60
2024/02/29 01:48:16;;;;;;;41.43;21.77;;;6.30;99.90;;;;;;4143853;28;20501;-55
2024/02/29 01:50:18;;;;;;;50.80;22.43;;;6.20;99.90;;;;;;4144815;28;20029;-57
2024/02/29 01:52:21;;;;;;;49.27;22.73;;;6.20;99.90;;;;;;4153991;28;20099;-52
2024/02/29 01:54:22;;;;;;;44.73;20.70;;;6.10;99.90;;;;;;4159476;28;20436;-58
2024/02/29 01:56:25;;;;;;;47.83;22.27;;;6.10;99.90;;;;;;4160084;28;20038;-52
2024/02/29 01:58:26;;;;;;;54.03;24.43;;;6.10;99.90;;;;;;4159370;28;20103;-60
2024/02/29 02:00:28;;;;;;;43.07;22.17;;;6.10;99.90;;;;;;4160115;28;20103;-56
2024/02/29 02:02:29;;;;;;;40.83;21.90;;;6.10;99.90;;;;;;4158939;28;20397;-56
2024/02/29 02:04:31;;;;;;;43.17;20.90;;;6.10;99.90;;;;;;4160000;28;20563;-59
2024/02/29 02:06:33;;;;;;;44.43;21.87;;;6.20;99.90;;;;;;4159116;28;20042;-59
2024/02/29 02:08:36;;;;;;;47.47;24.20;;;6.20;99.90;;;;;;4160165;28;20445;-56
2024/02/29 02:10:37;;;;;;;41.73;21.80;;;6.20;99.90;;;;;;4158343;28;20096;-52
2024/02/29 02:12:38;;;;;;;45.20;22.93;;;6.20;99.90;;;;;;4159818;28;20042;-58
2024/02/29 02:14:40;;;;;;;41.50;20.53;;;6.20;99.90;;;;;;4159211;28;20091;-58
2024/02/29 02:16:42;;;;;;;44.50;21.10;;;6.30;99.90;;;;;;4160720;28;20088;-58
2024/02/29 02:18:44;;;;;;;50.43;24.07;;;6.30;99.90;;;;;;4159873;28;20029;-57
2024/02/29 02:20:45;;;;;;;41.37;20.63;;;6.20;99.90;;;;;;4160042;28;20033;-62
2024/02/29 02:22:47;;;;;;;46.57;20.77;;;6.10;99.90;;;;;;4159248;28;20034;-60
2024/02/29 02:24:48;;;;;;;39.20;20.20;;;6.00;99.90;;;;;;4160014;28;20034;-63
2024/02/29 02:26:49;;;;;;;52.53;22.70;;;5.90;99.90;;;;;;4160279;28;20076;-59
2024/02/29 02:28:50;;;;;;;37.53;20.67;;;5.80;99.90;;;;;;4159418;28;20091;-56
2024/02/29 02:30:52;;;;;;;38.67;21.70;;;5.80;99.90;;;;;;4160444;28;20021;-57
2024/02/29 02:32:53;;;;;;;40.43;21.03;;;5.70;99.90;;;;;;4160003;28;20041;-60
2024/02/29 02:34:54;;;;;;;41.77;23.00;;;5.60;99.90;;;;;;4160183;28;20045;-58
2024/02/29 02:36:55;;;;;;;41.20;22.17;;;5.60;99.90;;;;;;4158887;28;20050;-58
2024/02/29 02:38:56;;;;;;;46.57;21.40;;;5.50;99.90;;;;;;4160101;28;20474;-59
2024/02/29 02:40:58;;;;;;;39.67;21.90;;;5.50;99.90;;;;;;4159174;28;20038;-58
2024/02/29 02:43:00;;;;;;;40.43;19.40;;;5.50;99.90;;;;;;4160030;28;20091;-57
2024/02/29 02:45:01;;;;;;;47.53;21.23;;;5.40;99.90;;;;;;4159776;28;20095;-59
2024/02/29 02:47:02;;;;;;;42.37;22.10;;;5.50;99.90;;;;;;4159863;28;20100;-57
2024/02/29 02:49:04;;;;;;;44.30;21.63;;;5.50;99.90;;;;;;4159533;28;20423;-61
2024/02/29 02:51:05;;;;;;;39.20;21.40;;;5.60;99.90;;;;;;4159898;28;20034;-58
2024/02/29 02:53:07;;;;;;;44.47;20.13;;;5.60;99.90;;;;;;4159680;28;20421;-55
2024/02/29 02:55:09;;;;;;;38.73;20.37;;;5.60;99.90;;;;;;4159549;28;20049;-57
2024/02/29 02:57:10;;;;;;;38.97;20.00;;;5.60;99.90;;;;;;4158818;28;20107;-58
2024/02/29 02:59:11;;;;;;;41.07;21.47;;;5.60;99.90;;;;;;4159345;28;20046;-55
2024/02/29 03:01:13;;;;;;;39.40;20.53;;;5.60;99.90;;;;;;4159223;28;20080;-57
2024/02/29 03:03:14;;;;;;;40.70;19.87;;;5.60;99.90;;;;;;4159218;28;20095;-60
2024/02/29 03:05:15;;;;;;;39.87;19.57;;;5.70;99.90;;;;;;4159755;28;20111;-58
2024/02/29 03:07:17;;;;;;;35.13;19.57;;;5.60;99.90;;;;;;4159105;28;20083;-59
2024/02/29 03:09:18;;;;;;;37.07;19.37;;;5.70;99.90;;;;;;4162787;28;20042;-57
2024/02/29 03:11:19;;;;;;;37.50;19.30;;;5.70;99.90;;;;;;4161583;28;20041;-58
2024/02/29 03:13:20;;;;;;;35.73;19.40;;;5.70;99.90;;;;;;4163305;28;20044;-58
2024/02/29 03:15:22;;;;;;;39.20;20.27;;;5.60;99.90;;;;;;4162314;28;20095;-53
2024/02/29 03:17:23;;;;;;;38.20;19.33;;;5.50;99.90;;;;;;4163037;28;20099;-57
2024/02/29 03:19:24;;;;;;;37.10;19.67;;;5.60;99.90;;;;;;4162054;28;20033;-49
2024/02/29 03:21:27;;;;;;;36.00;20.53;;;5.60;99.90;;;;;;4163469;28;20103;-56
2024/02/29 03:23:29;;;;;;;36.23;18.50;;;5.50;99.90;;;;;;4161796;28;20049;-59
2024/02/29 03:25:30;;;;;;;37.47;19.07;;;5.60;99.90;;;;;;4163249;28;20029;-60
2024/02/29 03:27:32;;;;;;;36.10;17.80;;;5.50;99.90;;;;;;4161519;28;20099;-56
2024/02/29 03:29:33;;;;;;;32.77;18.03;;;5.50;99.90;;;;;;4162000;28;20136;-60
2024/02/29 03:31:34;;;;;;;35.20;17.73;;;5.50;99.90;;;;;;4161986;28;20170;-61
2024/02/29 03:33:35;;;;;;;39.70;18.23;;;5.50;99.90;;;;;;4162371;28;20832;-57
2024/02/29 03:35:37;;;;;;;33.43;17.43;;;5.50;99.90;;;;;;4162969;28;20026;-54
2024/02/29 03:37:38;;;;;;;33.63;16.83;;;5.40;99.90;;;;;;4160693;28;20103;-55
2024/02/29 03:39:39;;;;;;;32.03;18.13;;;5.40;99.90;;;;;;4162825;28;20216;-59
2024/02/29 03:41:40;;;;;;;31.47;17.63;;;5.40;99.90;;;;;;4161120;28;20078;-62
2024/02/29 03:43:42;;;;;;;31.57;17.33;;;5.30;99.90;;;;;;4162164;28;20458;-62
2024/02/29 03:45:43;;;;;;;35.93;19.63;;;5.40;99.90;;;;;;4160307;28;20041;-58
2024/02/29 03:47:44;;;;;;;33.60;17.93;;;5.40;99.90;;;;;;4162120;28;20461;-59
2024/02/29 03:49:46;;;;;;;31.83;16.93;;;5.40;99.90;;;;;;4161762;28;20029;-58
2024/02/29 03:51:47;;;;;;;35.00;18.87;;;5.40;99.90;;;;;;4162546;28;20111;-59
2024/02/29 03:53:48;;;;;;;35.00;17.40;;;5.30;99.90;;;;;;4161736;28;20866;-60
2024/02/29 03:55:49;;;;;;;31.50;17.00;;;5.40;99.90;;;;;;4161994;28;20107;-56
2024/02/29 03:57:51;;;;;;;32.47;17.67;;;5.30;99.90;;;;;;4160864;28;20104;-53
2024/02/29 03:59:52;;;;;;;35.03;18.27;;;5.40;99.90;;;;;;4162398;28;20543;-61
2024/02/29 04:01:54;;;;;;;34.47;17.97;;;5.30;99.90;;;;;;4161469;28;20042;-59
2024/02/29 04:03:55;;;;;;;31.97;16.97;;;5.30;99.90;;;;;;4161248;28;20033;-61
2024/02/29 04:05:56;;;;;;;34.37;18.27;;;5.30;99.90;;;;;;4162402;28;20476;-61
2024/02/29 04:08:03;;;;;;;29.97;17.37;;;5.30;99.90;;;;;;4160697;28;20041;-60
2024/02/29 04:10:05;;;;;;;39.87;18.23;;;5.30;99.90;;;;;;4162296;28;20026;-58
2024/02/29 04:12:06;;;;;;;35.57;17.77;;;5.30;99.90;;;;;;4143807;28;20523;-56
2024/02/29 04:14:09;;;;;;;33.20;17.23;;;5.20;99.90;;;;;;4161427;28;20033;-56
2024/02/29 04:16:10;;;;;;;31.53;17.70;;;5.20;99.90;;;;;;4160549;28;20088;-60
2024/02/29 04:18:12;;;;;;;39.40;19.00;;;5.20;99.90;;;;;;4161385;28;20158;-59
2024/02/29 04:20:14;;;;;;;34.97;18.77;;;5.20;99.90;;;;;;4159439;28;20099;-61
2024/02/29 04:22:15;;;;;;;39.03;17.87;;;5.10;99.90;;;;;;4160529;28;20482;-60
2024/02/29 04:24:16;;;;;;;37.27;18.30;;;5.00;99.90;;;;;;4160793;28;20095;-58
2024/02/29 04:26:18;;;;;;;37.37;18.43;;;4.90;99.90;;;;;;4161706;28;20087;-59
2024/02/29 04:28:19;;;;;;;34.33;18.23;;;4.90;99.90;;;;;;4160434;28;20034;-60
2024/02/29 04:30:20;;;;;;;32.97;17.93;;;4.90;99.90;;;;;;4161493;28;20095;-60
2024/02/29 04:32:22;;;;;;;41.40;18.40;;;4.90;99.90;;;;;;4161323;28;20052;-58
2024/02/29 04:34:23;;;;;;;38.73;18.40;;;4.90;99.90;;;;;;4160803;28;20033;-60
2024/02/29 04:36:24;;;;;;;42.23;21.43;;;4.80;99.90;;;;;;4161615;28;20091;-61
2024/02/29 04:38:25;;;;;;;38.03;20.70;;;4.70;99.90;;;;;;4160153;28;20953;-54
2024/02/29 04:40:27;;;;;;;41.70;23.43;;;4.60;99.90;;;;;;4160837;28;20041;-55
2024/02/29 04:42:28;;;;;;;48.00;26.33;;;4.50;99.90;;;;;;4160852;28;20425;-56
2024/02/29 04:44:32;;;;;;;47.17;25.93;;;4.50;99.90;;;;;;4161641;28;20053;-51
2024/02/29 04:46:33;;;;;;;45.93;23.80;;;4.50;99.90;;;;;;4160129;28;20337;-59
2024/02/29 04:48:34;;;;;;;41.13;21.43;;;4.40;99.90;;;;;;4161148;28;20142;-59
2024/02/29 04:50:35;;;;;;;44.53;21.80;;;4.50;99.90;;;;;;4160345;28;20037;-54
2024/02/29 04:52:37;;;;;;;38.40;21.40;;;4.50;99.90;;;;;;4160712;28;20348;-61
2024/02/29 04:54:38;;;;;;;40.53;21.13;;;4.50;99.90;;;;;;4159068;28;20670;-60
2024/02/29 04:56:39;;;;;;;37.87;19.83;;;4.50;99.90;;;;;;4161794;28;20132;-59
2024/02/29 04:58:40;;;;;;;34.13;19.47;;;4.50;99.90;;;;;;4159237;28;20282;-61
2024/02/29 05:00:42;;;;;;;37.33;19.83;;;4.50;99.90;;;;;;4160174;28;20283;-56
2024/02/29 05:02:43;;;;;;;36.93;20.07;;;4.60;99.90;;;;;;4160364;28;20025;-60
2024/02/29 05:04:45;;;;;;;41.67;20.90;;;4.60;99.90;;;;;;4160989;28;20282;-60
2024/02/29 05:06:46;;;;;;;37.87;18.97;;;4.60;99.90;;;;;;4159912;28;20046;-59
2024/02/29 05:08:47;;;;;;;36.13;19.10;;;4.60;99.90;;;;;;4160499;28;21471;-62
2024/02/29 05:10:48;;;;;;;36.17;19.47;;;4.60;99.90;;;;;;4160335;28;20832;-63
2024/02/29 05:12:50;;;;;;;33.73;19.07;;;4.60;99.90;;;;;;4159617;28;20332;-59
2024/02/29 05:14:52;;;;;;;40.10;19.23;;;4.60;99.90;;;;;;4160982;28;20593;-58
2024/02/29 05:16:53;;;;;;;35.77;18.93;;;4.60;99.90;;;;;;4158990;28;20348;-57
2024/02/29 05:18:56;;;;;;;34.30;18.97;;;4.60;99.90;;;;;;4160704;28;20092;-62
2024/02/29 05:20:57;;;;;;;39.13;19.17;;;4.70;99.90;;;;;;4159992;28;20433;-61
2024/02/29 05:22:58;;;;;;;35.80;18.63;;;4.70;99.90;;;;;;4146430;28;20042;-59
2024/02/29 05:25:00;;;;;;;46.23;18.20;;;4.70;99.90;;;;;;4142680;28;20469;-59
2024/02/29 05:27:01;;;;;;;43.97;19.33;;;4.80;99.90;;;;;;4161169;28;20065;-57
2024/02/29 05:29:03;;;;;;;38.67;18.27;;;4.80;99.90;;;;;;4160252;28;20029;-58
2024/02/29 05:31:04;;;;;;;42.73;18.47;;;4.80;99.90;;;;;;4158124;28;20072;-61
2024/02/29 05:33:05;;;;;;;45.60;19.13;;;4.80;99.90;;;;;;4159225;28;20448;-60
2024/02/29 05:35:08;;;;;;;42.27;20.00;;;4.80;99.90;;;;;;4159422;28;20042;-60
2024/02/29 05:37:09;;;;;;;38.07;18.27;;;4.80;99.90;;;;;;4160474;28;20041;-61
2024/02/29 05:39:12;;;;;;;36.13;17.87;;;4.80;99.90;;;;;;4159580;28;20045;-59
2024/02/29 05:41:13;;;;;;;34.43;18.83;;;4.90;99.90;;;;;;4160506;28;20535;-59
2024/02/29 05:43:14;;;;;;;29.70;17.10;;;4.90;99.90;;;;;;4160053;28;20095;-61
2024/02/29 05:45:15;;;;;;;36.57;19.13;;;5.10;99.90;;;;;;4160716;28;20336;-62
2024/02/29 05:47:17;;;;;;;34.70;16.83;;;5.40;99.90;;;;;;4159598;28;20416;-59
2024/02/29 05:49:18;;;;;;;35.77;17.20;;;5.60;99.90;;;;;;4160832;28;20041;-58
2024/02/29 05:51:20;;;;;;;29.93;14.97;;;5.90;99.90;;;;;;4145305;28;20038;-61
2024/02/29 05:53:21;;;;;;;31.40;16.43;;;6.20;99.90;;;;;;4160572;28;20977;-59
2024/02/29 05:55:22;;;;;;;37.73;18.70;;;6.30;99.90;;;;;;4158400;28;20041;-60
2024/02/29 05:57:30;;;;;;;37.03;18.60;;;6.40;99.90;;;;;;4160082;28;20512;-59
2024/02/29 05:59:31;;;;;;;32.00;18.63;;;6.50;99.90;;;;;;4158740;28;20045;-60
2024/02/29 06:01:33;;;;;;;35.83;18.13;;;6.60;99.90;;;;;;4160469;28;20310;-60
2024/02/29 06:03:36;;;;;;;29.33;17.60;;;6.70;99.90;;;;;;4159886;28;20096;-61
2024/02/29 06:05:38;;;;;;;37.83;18.40;;;6.80;99.90;;;;;;4160465;28;20033;-61
2024/02/29 06:07:39;;;;;;;45.73;18.80;;;7.00;99.90;;;;;;4158744;28;20229;-62
2024/02/29 06:09:43;;;;;;;38.10;19.30;;;7.30;99.90;;;;;;4158868;28;20049;-64
2024/02/29 06:11:44;;;;;;;53.20;19.53;;;7.50;99.90;;;;;;4154864;28;20091;-57
2024/02/29 06:13:46;;;;;;;42.93;20.43;;;7.70;99.90;;;;;;4152848;28;20045;-62
2024/02/29 06:15:47;;;;;;;36.20;19.40;;;7.80;99.90;;;;;;4150934;28;20048;-57
2024/02/29 06:17:49;;;;;;;36.70;20.33;;;7.60;99.90;;;;;;4149525;28;20057;-58
2024/02/29 06:19:50;;;;;;;44.63;21.53;;;7.70;99.90;;;;;;4160445;28;20018;-58
2024/02/29 06:21:52;;;;;;;51.43;20.63;;;7.90;99.90;;;;;;4158467;28;20057;-58
2024/02/29 06:23:56;;;;;;;42.47;20.67;;;8.00;99.90;;;;;;4159898;28;20343;-62
2024/02/29 06:25:58;;;;;;;44.87;23.07;;;8.20;99.90;;;;;;4157792;28;20452;-52
2024/02/29 06:27:59;;;;;;;41.57;21.03;;;8.50;99.90;;;;;;4155563;28;20045;-54
2024/02/29 06:30:02;;;;;;;51.83;20.57;;;8.50;99.90;;;;;;4157878;28;20417;-54
2024/02/29 06:32:03;;;;;;;37.80;19.77;;;8.40;99.90;;;;;;4160223;28;20095;-61
2024/02/29 06:34:04;;;;;;;46.20;20.80;;;8.10;99.90;;;;;;4155540;28;20179;-62
2024/02/29 06:36:06;;;;;;;35.03;20.73;;;7.80;99.90;;;;;;4159850;28;20259;-62
2024/02/29 06:38:07;;;;;;;46.67;21.83;;;7.50;99.90;;;;;;4159064;28;20050;-61
2024/02/29 06:40:10;;;;;;;40.77;22.33;;;7.40;99.90;;;;;;4160178;28;20432;-62
2024/02/29 06:42:12;;;;;;;40.73;19.80;;;7.40;99.90;;;;;;4159522;28;20101;-59
2024/02/29 06:44:13;;;;;;;40.17;21.07;;;7.70;99.90;;;;;;4161878;28;20088;-56
2024/02/29 06:46:15;;;;;;;45.00;22.70;;;8.00;99.90;;;;;;4160628;28;20133;-55
2024/02/29 06:48:18;;;;;;;41.23;22.70;;;8.00;99.90;;;;;;4162515;28;20151;-64
2024/02/29 06:50:19;;;;;;;49.47;24.10;;;8.10;99.90;;;;;;4162623;28;20084;-65
2024/02/29 06:52:20;;;;;;;43.03;23.90;;;8.30;99.90;;;;;;4161297;28;20416;-56
2024/02/29 06:54:22;;;;;;;56.43;23.40;;;8.80;99.90;;;;;;4163175;28;20056;-64
2024/02/29 06:56:23;;;;;;;56.07;26.93;;;9.00;99.90;;;;;;4162980;28;20037;-62
2024/02/29 06:58:24;;;;;;;54.83;26.50;;;9.10;99.90;;;;;;4163779;28;20045;-61
2024/02/29 07:00:26;;;;;;;47.70;26.17;;;9.20;99.90;;;;;;4162202;28;20077;-62
2024/02/29 07:02:27;;;;;;;49.63;24.50;;;9.30;99.90;;;;;;4162708;28;20041;-59
2024/02/29 07:04:28;;;;;;;42.93;23.30;;;9.20;99.90;;;;;;4161214;28;20490;-61
2024/02/29 07:06:29;;;;;;;45.67;22.10;;;9.20;99.90;;;;;;4162864;28;20547;-61
2024/02/29 07:08:34;;;;;;;43.50;20.87;;;9.30;99.90;;;;;;4161046;28;20099;-63
2024/02/29 07:10:35;;;;;;;43.50;21.63;;;9.10;99.90;;;;;;4163230;28;20038;-60
2024/02/29 07:12:36;;;;;;;42.23;21.77;;;9.00;99.90;;;;;;4161404;28;20088;-59
2024/02/29 07:14:38;;;;;;;55.57;21.03;;;9.00;99.90;;;;;;4162089;28;20096;-59
2024/02/29 07:16:39;;;;;;;37.23;20.57;;;9.00;99.90;;;;;;4161616;28;20037;-61
2024/02/29 07:18:40;;;;;;;43.03;22.23;;;8.80;99.90;;;;;;4160270;28;20096;-62
2024/02/29 07:20:42;;;;;;;43.93;21.30;;;8.80;99.90;;;;;;4162123;28;20551;-60
2024/02/29 07:22:45;;;;;;;40.77;23.23;;;9.10;99.90;;;;;;4162278;28;20025;-62
2024/02/29 07:24:47;;;;;;;64.50;22.77;;;9.30;99.90;;;;;;4162342;28;20045;-60
2024/02/29 07:26:48;;;;;;;41.83;21.23;;;9.40;99.90;;;;;;4162208;28;20049;-57
2024/02/29 07:28:49;;;;;;;51.83;22.67;;;9.90;99.90;;;;;;4162028;28;20038;-52
2024/02/29 07:30:51;;;;;;;41.17;19.60;;;10.10;99.90;;;;;;4162267;28;20080;-67
2024/02/29 07:32:52;;;;;;;39.07;20.13;;;9.90;99.90;;;;;;4162702;28;20502;-64
2024/02/29 07:34:53;;;;;;;36.27;20.20;;;9.70;99.90;;;;;;4162165;28;20029;-53
2024/02/29 07:36:54;;;;;;;42.23;21.23;;;9.80;99.90;;;;;;4162937;28;20444;-53
2024/02/29 07:38:56;;;;;;;35.87;19.53;;;10.10;99.90;;;;;;4160659;28;20139;-58
2024/02/29 07:40:57;;;;;;;33.20;18.47;;;10.60;99.90;;;;;;4161999;28;20042;-56
2024/02/29 07:43:00;;;;;;;34.83;18.47;;;11.20;99.90;;;;;;4161400;28;20033;-60
2024/02/29 07:45:02;;;;;;;41.30;20.97;;;11.70;99.90;;;;;;4162981;28;20083;-60
2024/02/29 07:47:03;;;;;;;34.97;18.73;;;11.70;99.90;;;;;;4161587;28;20103;-56
2024/02/29 07:49:05;;;;;;;37.17;18.73;;;11.40;99.90;;;;;;4161313;28;20103;-60
2024/02/29 07:51:06;;;;;;;37.17;19.23;;;11.20;99.90;;;;;;4161868;28;20029;-60
2024/02/29 07:53:08;;;;;;;33.43;18.93;;;11.10;99.90;;;;;;4161077;28;20041;-62
2024/02/29 07:55:13;;;;;;;43.70;19.37;;;10.90;99.90;;;;;;4155837;28;20025;-59
2024/02/29 07:57:14;;;;;;;35.30;19.50;;;10.90;99.90;;;;;;4144484;28;20095;-47
2024/02/29 07:59:15;;;;;;;34.43;19.03;;;11.40;99.90;;;;;;4158893;28;20025;-55
2024/02/29 08:01:17;;;;;;;43.47;18.37;;;11.70;99.90;;;;;;4160295;28;20038;-61
2024/02/29 08:03:18;;;;;;;32.83;16.87;;;11.90;99.90;;;;;;4156829;28;20849;-54
2024/02/29 08:05:19;;;;;;;30.47;16.77;;;12.00;99.90;;;;;;4158277;28;20088;-62
2024/02/29 08:07:21;;;;;;;31.67;16.57;;;12.00;99.90;;;;;;4160440;28;20084;-60
2024/02/29 08:09:24;;;;;;;28.63;16.13;;;11.70;99.90;;;;;;4159056;28;20397;-58
2024/02/29 08:11:25;;;;;;;29.60;16.60;;;11.50;99.90;;;;;;4158879;28;20053;-52
2024/02/29 08:13:27;;;;;;;30.00;16.70;;;11.40;99.90;;;;;;4156531;28;20097;-59
2024/02/29 08:15:30;;;;;;;28.87;16.70;;;11.10;99.90;;;;;;4160236;28;20543;-61
2024/02/29 08:17:32;;;;;;;28.70;16.70;;;11.10;99.90;;;;;;4159616;28;20091;-63
2024/02/29 08:19:34;;;;;;;27.67;16.57;;;10.90;99.90;;;;;;4160735;28;20099;-64
2024/02/29 08:21:36;;;;;;;24.57;14.77;;;10.80;99.90;;;;;;4159283;28;20389;-61
2024/02/29 08:23:37;;;;;;;31.50;15.70;;;10.80;99.90;;;;;;4159317;28;20159;-63
2024/02/29 08:25:38;;;;;;;29.17;14.67;;;10.80;99.90;;;;;;4153186;28;20037;-60
2024/02/29 08:27:40;;;;;;;34.53;16.03;;;10.80;99.90;;;;;;4155132;28;20148;-62
2024/02/29 08:29:42;;;;;;;27.70;14.27;;;10.80;99.90;;;;;;4154959;28;20049;-58
2024/02/29 08:31:44;;;;;;;25.27;14.70;;;10.90;99.90;;;;;;4135706;28;20041;-61
2024/02/29 08:33:45;;;;;;;23.27;12.87;;;10.80;99.90;;;;;;4155464;28;20041;-60
2024/02/29 08:35:46;;;;;;;27.10;14.57;;;10.70;99.90;;;;;;4152837;28;20038;-59
2024/02/29 08:37:47;;;;;;;21.47;11.60;;;10.70;99.90;;;;;;4159238;28;20383;-61
2024/02/29 08:39:49;;;;;;;29.20;14.40;;;10.60;99.90;;;;;;4160152;28;20077;-61
2024/02/29 08:41:51;;;;;;;22.50;13.10;;;10.40;99.90;;;;;;4157810;28;20123;-53
2024/02/29 08:43:52;;;;;;;28.93;14.53;;;10.40;99.90;;;;;;4156899;28;20075;-65
2024/02/29 08:45:53;;;;;;;25.50;13.63;;;10.30;99.90;;;;;;4160765;28;20060;-63
2024/02/29 08:47:54;;;;;;;24.57;14.13;;;10.40;99.90;;;;;;4160333;28;20029;-62
2024/02/29 08:49:56;;;;;;;27.30;14.90;;;10.40;99.90;;;;;;4160819;28;20063;-64
2024/02/29 08:51:57;;;;;;;22.97;15.60;;;10.30;99.90;;;;;;4160422;28;20041;-56
2024/02/29 08:53:58;;;;;;;30.87;16.67;;;10.30;99.90;;;;;;4160608;28;20037;-61
2024/02/29 08:56:00;;;;;;;27.90;16.07;;;10.30;99.90;;;;;;4161611;28;20033;-61
2024/02/29 08:58:01;;;;;;;31.07;17.17;;;10.20;99.90;;;;;;4160279;28;20045;-63
2024/02/29 09:00:02;;;;;;;30.13;17.27;;;10.20;99.90;;;;;;4160316;28;20034;-58
2024/02/29 09:02:05;;;;;;;30.90;16.60;;;10.20;99.90;;;;;;4158754;28;20099;-58
2024/02/29 09:04:06;;;;;;;32.57;18.70;;;10.20;99.90;;;;;;4160368;28;20058;-59
2024/02/29 09:06:08;;;;;;;33.27;18.93;;;10.20;99.90;;;;;;4159691;28;20474;-58
2024/02/29 09:08:09;;;;;;;34.60;19.70;;;10.30;99.90;;;;;;4143569;28;20101;-59
2024/02/29 09:10:12;;;;;;;33.20;18.93;;;10.30;99.90;;;;;;4159923;28;20037;-64
2024/02/29 09:12:16;;;;;;;33.30;19.20;;;10.40;99.90;;;;;;4159897;28;20045;-61
2024/02/29 09:14:19;;;;;;;37.53;20.93;;;10.40;99.90;;;;;;4159016;28;20064;-59
2024/02/29 09:16:20;;;;;;;39.63;20.63;;;10.40;99.90;;;;;;4160348;28;20067;-61
2024/02/29 09:18:22;;;;;;;31.23;19.63;;;10.30;99.90;;;;;;4159344;28;20220;-60
2024/02/29 09:20:23;;;;;;;33.57;20.30;;;10.40;99.90;;;;;;4160683;28;20033;-60
2024/02/29 09:22:25;;;;;;;36.93;21.47;;;10.30;99.90;;;;;;4159928;28;20029;-61
2024/02/29 09:24:26;;;;;;;35.53;21.73;;;10.40;99.90;;;;;;4159892;28;20052;-61
2024/02/29 09:26:27;;;;;;;36.80;21.07;;;10.60;99.90;;;;;;4158790;28;20045;-58
2024/02/29 09:28:28;;;;;;;36.87;21.20;;;10.60;99.90;;;;;;4159726;28;20041;-57
2024/02/29 09:30:30;;;;;;;37.33;21.43;;;10.70;99.90;;;;;;4159949;28;20033;-54
2024/02/29 09:32:31;;;;;;;37.07;21.60;;;10.70;99.90;;;;;;4159964;28;20030;-61
2024/02/29 09:34:34;;;;;;;35.03;20.93;;;10.80;99.90;;;;;;4161162;28;20485;-62
2024/02/29 09:36:37;;;;;;;34.67;20.83;;;10.80;99.90;;;;;;4157943;28;20501;-60
2024/02/29 09:38:38;;;;;;;37.90;19.97;;;10.80;99.90;;;;;;4159817;28;20115;-60
2024/02/29 09:40:39;;;;;;;39.30;22.87;;;10.90;99.90;;;;;;4158062;28;20042;-60
2024/02/29 09:42:42;;;;;;;35.03;20.90;;;10.90;99.90;;;;;;4159976;28;20099;-56
2024/02/29 09:44:43;;;;;;;38.57;20.87;;;10.90;99.90;;;;;;4158566;28;20532;-60
2024/02/29 09:46:50;;;;;;;45.70;22.07;;;11.00;99.90;;;;;;4160431;28;20079;-58
2024/02/29 09:48:52;;;;;;;40.23;22.87;;;11.00;99.90;;;;;;4158618;28;20478;-57
2024/02/29 09:50:54;;;;;;;38.10;21.17;;;11.10;99.90;;;;;;4159288;28;20444;-57
2024/02/29 09:52:57;;;;;;;32.27;20.33;;;11.30;99.90;;;;;;4159060;28;20025;-59
2024/02/29 09:55:03;;;;;;;38.30;21.63;;;11.30;99.90;;;;;;4159831;28;20042;-60
2024/02/29 09:57:07;;;;;;;35.73;21.03;;;11.30;99.90;;;;;;4159609;28;20026;-59
2024/02/29 09:59:14;;;;;;;36.93;21.07;;;11.40;99.90;;;;;;4160206;28;20042;-57
2024/02/29 10:01:16;;;;;;;36.67;20.93;;;11.50;99.90;;;;;;4159603;28;20055;-57
2024/02/29 10:03:17;;;;;;;43.03;23.00;;;11.50;99.90;;;;;;4158479;28;20029;-58
2024/02/29 10:05:19;;;;;;;35.37;21.83;;;11.50;99.90;;;;;;4159475;28;20037;-59
2024/02/29 10:07:20;;;;;;;33.10;20.07;;;11.60;99.90;;;;;;4159008;28;20040;-60
2024/02/29 10:09:21;;;;;;;34.77;19.53;;;11.70;99.90;;;;;;4140875;28;20046;-59
2024/02/29 10:11:31;;;;;;;35.60;18.97;;;11.70;99.90;;;;;;4157691;28;20041;-59
2024/02/29 10:13:40;;;;;;;33.78;19.23;;;11.80;99.90;;;;;;4159881;28;20395;-55
2024/02/29 10:15:42;;;;;;;35.20;19.33;;;11.90;99.90;;;;;;4159016;28;20034;-60
2024/02/29 10:17:43;;;;;;;34.50;19.67;;;11.90;99.90;;;;;;4161405;28;20095;-59
2024/02/29 10:19:52;;;;;;;40.17;21.30;;;11.90;99.90;;;;;;4161516;28;20103;-58
2024/02/29 10:21:53;;;;;;;37.80;19.60;;;12.00;99.90;;;;;;4162812;28;20502;-60